Time;durP1;ratioP1;P1;durP2;ratioP2;P2;SDS_P1;SDS_P2;PMS_P1;PMS_P2;Temp;Humidity;BMP_temperature;BMP_pressure;BME280_temperature;BME280_humidity;BME280_pressure;Samples;Min_cycle;Max_cycle;Signal;HPM_P1;HPM_P2
2022/10/31 00:01:21;;;;;;;1.50;1.50;;;20.70;75.50;;;;;;5086867;28;44052;-71
2022/10/31 00:03:49;;;;;;;1.30;1.30;;;20.60;75.50;;;;;;5087082;28;43451;-70
2022/10/31 00:06:18;;;;;;;1.60;1.60;;;20.60;75.80;;;;;;5086854;28;43908;-71
2022/10/31 00:08:47;;;;;;;1.60;1.60;;;20.70;75.80;;;;;;5086536;28;44213;-71
2022/10/31 00:11:15;;;;;;;1.70;1.70;;;20.80;75.30;;;;;;5086658;28;43830;-71
2022/10/31 00:13:43;;;;;;;1.50;1.50;;;21.00;74.80;;;;;;5068551;28;43628;-72
2022/10/31 00:16:15;;;;;;;1.53;1.53;;;21.10;74.10;;;;;;5071743;28;45900;-72
2022/10/31 00:18:43;;;;;;;2.13;1.50;;;21.10;73.90;;;;;;5086013;28;43454;-72
2022/10/31 00:21:11;;;;;;;1.37;1.37;;;21.10;74.10;;;;;;5086288;28;43587;-71
2022/10/31 00:23:39;;;;;;;1.53;1.53;;;21.00;74.20;;;;;;5087033;28;43452;-71
2022/10/31 00:26:08;;;;;;;1.53;1.53;;;20.90;74.40;;;;;;5085638;28;43617;-71
2022/10/31 00:28:36;;;;;;;1.60;1.60;;;20.80;74.80;;;;;;5086563;28;43491;-71
2022/10/31 00:31:06;;;;;;;1.60;1.60;;;20.80;74.80;;;;;;5086393;28;44147;-71
2022/10/31 00:33:34;;;;;;;1.40;1.40;;;20.80;74.90;;;;;;5086626;28;43936;-70
2022/10/31 00:36:02;;;;;;;1.40;1.40;;;20.80;75.00;;;;;;5067620;28;45375;-73
2022/10/31 00:38:30;;;;;;;1.47;1.47;;;20.80;75.10;;;;;;5070805;28;44654;-71
2022/10/31 00:40:57;;;;;;;1.50;1.50;;;20.70;75.60;;;;;;5083559;28;43478;-72
2022/10/31 00:43:27;;;;;;;1.50;1.50;;;20.70;75.50;;;;;;5087157;28;43422;-71
2022/10/31 00:45:55;;;;;;;1.50;1.50;;;20.70;75.50;;;;;;5084633;27;45630;-72
2022/10/31 00:48:25;;;;;;;1.57;1.57;;;20.70;75.40;;;;;;5067197;28;43391;-72
2022/10/31 00:50:53;;;;;;;1.50;1.50;;;20.60;75.40;;;;;;5067725;28;43511;-71
2022/10/31 00:53:22;;;;;;;1.60;1.60;;;20.60;75.90;;;;;;5067248;28;43671;-71
2022/10/31 00:55:50;;;;;;;1.30;1.30;;;20.70;75.70;;;;;;5085381;27;43794;-71
2022/10/31 00:58:19;;;;;;;1.50;1.50;;;20.80;75.30;;;;;;5067075;28;44883;-71
2022/10/31 01:00:54;;;;;;;1.67;1.67;;;21.00;74.80;;;;;;5067680;28;43395;-72
2022/10/31 01:03:23;;;;;;;1.30;1.30;;;21.10;74.20;;;;;;5067913;28;43465;-70
2022/10/31 01:05:59;;;;;;;1.57;1.57;;;21.10;73.90;;;;;;5067101;28;45991;-72
2022/10/31 01:08:26;;;;;;;1.57;1.57;;;21.10;74.00;;;;;;5085261;28;43797;-71
2022/10/31 01:11:02;;;;;;;1.70;1.70;;;21.00;74.10;;;;;;5067156;28;43456;-71
2022/10/31 01:13:30;;;;;;;1.50;1.50;;;20.90;74.40;;;;;;5086482;28;43420;-71
2022/10/31 01:15:59;;;;;;;1.33;1.33;;;20.80;74.80;;;;;;5067014;28;46149;-71
2022/10/31 01:18:27;;;;;;;1.40;1.40;;;20.80;74.90;;;;;;5085914;27;44464;-71
2022/10/31 01:21:00;;;;;;;1.50;1.50;;;20.80;75.00;;;;;;5086240;28;43521;-71
2022/10/31 01:23:28;;;;;;;1.43;1.43;;;20.70;75.00;;;;;;5067969;28;43526;-71
2022/10/31 01:26:04;;;;;;;1.43;1.43;;;20.70;75.20;;;;;;5069432;28;45576;-70
2022/10/31 01:28:33;;;;;;;1.70;1.70;;;20.70;75.50;;;;;;5086935;27;43450;-72
2022/10/31 01:31:07;;;;;;;1.63;1.63;;;20.70;75.40;;;;;;5070716;28;43394;-70
2022/10/31 01:33:35;;;;;;;1.30;1.30;;;20.60;75.30;;;;;;5089311;28;43928;-70
2022/10/31 01:36:11;;;;;;;1.50;1.50;;;20.60;75.40;;;;;;5070489;28;46187;-71
2022/10/31 01:38:39;;;;;;;1.47;1.47;;;20.60;75.60;;;;;;5085594;28;43804;-69
2022/10/31 01:41:07;;;;;;;1.40;1.40;;;20.60;75.90;;;;;;5079435;27;43347;-71
2022/10/31 01:43:50;;;;;;;1.50;1.50;;;20.60;75.60;;;;;;5083010;28;43474;-71
2022/10/31 01:46:21;;;;;;;1.70;1.70;;;20.60;75.60;;;;;;5095929;27;45950;-72
2022/10/31 01:48:49;;;;;;;1.53;1.53;;;20.60;75.60;;;;;;5088648;28;44047;-71
2022/10/31 01:51:17;;;;;;;1.53;1.53;;;20.60;75.80;;;;;;5084911;27;43536;-70
2022/10/31 01:53:45;;;;;;;1.70;1.70;;;20.60;76.10;;;;;;5088279;28;43553;-71
2022/10/31 01:56:14;;;;;;;1.70;1.70;;;20.60;75.70;;;;;;5072094;28;45843;-71
2022/10/31 01:58:42;;;;;;;1.50;1.50;;;20.80;75.40;;;;;;5066169;28;44732;-71
2022/10/31 02:01:10;;;;;;;1.50;1.50;;;20.90;74.60;;;;;;5082441;27;43538;-71
2022/10/31 02:03:39;;;;;;;1.53;1.53;;;21.10;74.20;;;;;;5082940;27;43435;-71
2022/10/31 02:06:09;;;;;;;1.60;1.60;;;21.10;74.00;;;;;;5088567;28;43923;-72
2022/10/31 02:08:37;;;;;;;1.40;1.40;;;21.10;74.10;;;;;;5088292;28;43475;-71
2022/10/31 02:11:05;;;;;;;1.53;1.53;;;21.00;74.20;;;;;;5088710;28;43343;-71
2022/10/31 02:13:33;;;;;;;1.80;1.80;;;20.90;74.50;;;;;;5070755;28;43969;-71
2022/10/31 02:16:01;;;;;;;1.50;1.50;;;20.80;74.80;;;;;;5088131;28;43908;-72
2022/10/31 02:18:30;;;;;;;1.40;1.40;;;20.80;74.80;;;;;;5076089;28;45125;-72
2022/10/31 02:21:08;;;;;;;1.57;1.57;;;20.80;74.90;;;;;;5095839;27;44052;-73
2022/10/31 02:24:01;;;;;;;1.37;1.37;;;20.70;75.00;;;;;;5070260;28;43687;-71
2022/10/31 02:26:58;;;;;;;1.50;1.50;;;20.70;75.40;;;;;;5064777;28;45446;-70
2022/10/31 02:30:04;;;;;;;1.50;1.50;;;20.70;75.40;;;;;;5069696;28;43452;-73
2022/10/31 02:32:39;;;;;;;1.63;1.63;;;20.90;74.90;;;;;;5070495;28;43428;-72
2022/10/31 02:35:11;;;;;;;1.63;1.63;;;20.90;74.60;;;;;;5070336;28;44034;-73
2022/10/31 02:37:41;;;;;;;1.60;1.60;;;20.90;74.60;;;;;;5069397;28;45708;-72
2022/10/31 02:40:13;;;;;;;1.60;1.60;;;20.90;74.90;;;;;;5088899;27;44732;-70
2022/10/31 02:43:07;;;;;;;1.50;1.50;;;20.90;74.80;;;;;;5086055;28;44470;-72
2022/10/31 02:45:40;;;;;;;1.60;1.60;;;20.80;74.80;;;;;;5088992;28;43816;-71
2022/10/31 02:48:10;;;;;;;1.70;1.70;;;20.80;74.80;;;;;;5092523;27;43833;-71
2022/10/31 02:50:40;;;;;;;1.60;1.60;;;20.70;75.00;;;;;;5069430;28;44610;-71
2022/10/31 02:53:10;;;;;;;1.40;1.40;;;20.70;75.30;;;;;;5068840;28;43542;-71
2022/10/31 02:55:58;;;;;;;1.60;1.60;;;20.70;75.30;;;;;;5082972;27;43727;-71
2022/10/31 02:58:29;;;;;;;1.60;1.60;;;20.60;75.20;;;;;;5063116;28;43907;-72
2022/10/31 03:01:14;;;;;;;1.50;1.50;;;20.60;75.30;;;;;;5087231;28;44098;-71
2022/10/31 03:03:50;;;;;;;2.00;1.90;;;20.60;75.60;;;;;;5069168;28;44002;-72
2022/10/31 03:06:20;;;;;;;1.50;1.50;;;20.60;75.70;;;;;;5088043;28;43485;-72
2022/10/31 03:08:51;;;;;;;1.50;1.50;;;20.70;75.50;;;;;;5068947;28;45741;-72
2022/10/31 03:11:19;;;;;;;1.70;1.70;;;20.80;74.90;;;;;;5069113;28;45070;-72
2022/10/31 03:13:47;;;;;;;1.50;1.50;;;20.90;74.60;;;;;;5087586;28;43406;-71
2022/10/31 03:16:16;;;;;;;1.67;1.67;;;20.90;74.50;;;;;;5093708;27;43585;-72
2022/10/31 03:18:49;;;;;;;1.60;1.50;;;20.90;74.80;;;;;;5086550;27;44004;-72
2022/10/31 03:21:19;;;;;;;1.70;1.70;;;20.90;74.80;;;;;;5087658;27;44573;-72
2022/10/31 03:23:47;;;;;;;1.50;1.50;;;20.80;74.60;;;;;;5069161;28;43804;-71
2022/10/31 03:26:20;;;;;;;1.70;1.70;;;20.80;74.70;;;;;;5091352;27;43554;-71
2022/10/31 03:28:50;;;;;;;1.80;1.80;;;20.80;74.90;;;;;;5068653;28;44052;-72
2022/10/31 03:31:20;;;;;;;1.60;1.60;;;20.70;75.30;;;;;;5064150;28;43739;-70
2022/10/31 03:33:50;;;;;;;1.60;1.60;;;20.70;75.30;;;;;;5065466;28;43570;-72
2022/10/31 03:36:18;;;;;;;1.60;1.60;;;20.70;75.30;;;;;;5087884;28;43432;-70
2022/10/31 03:38:47;;;;;;;1.50;1.50;;;20.60;75.20;;;;;;5068639;28;45449;-72
2022/10/31 03:41:20;;;;;;;1.80;1.80;;;20.60;75.30;;;;;;5084318;27;43534;-71
2022/10/31 03:43:52;;;;;;;1.80;1.80;;;20.60;75.60;;;;;;5068768;28;43445;-71
2022/10/31 03:46:21;;;;;;;1.80;1.80;;;20.50;75.70;;;;;;5086888;27;43537;-71
2022/10/31 03:48:56;;;;;;;1.60;1.60;;;20.60;75.40;;;;;;5090627;27;43782;-71
2022/10/31 03:51:25;;;;;;;1.97;1.97;;;20.80;74.90;;;;;;5068459;28;44552;-72
2022/10/31 03:53:55;;;;;;;1.77;1.77;;;20.90;74.60;;;;;;5083861;27;43476;-71
2022/10/31 03:56:26;;;;;;;1.80;1.80;;;20.90;74.60;;;;;;5072356;28;43917;-71
2022/10/31 03:58:58;;;;;;;1.70;1.70;;;20.80;74.60;;;;;;5066450;28;44042;-72
2022/10/31 04:01:27;;;;;;;1.97;1.87;;;20.80;74.60;;;;;;5081098;27;45074;-70
2022/10/31 04:03:57;;;;;;;1.53;1.53;;;20.90;74.60;;;;;;5086158;27;43395;-72
2022/10/31 04:06:26;;;;;;;1.70;1.70;;;20.80;74.60;;;;;;5069213;28;43502;-71
2022/10/31 04:08:57;;;;;;;1.63;1.60;;;20.70;74.70;;;;;;5068720;28;44059;-71
2022/10/31 04:11:28;;;;;;;1.77;1.77;;;20.70;75.20;;;;;;5068336;28;45536;-71
2022/10/31 04:14:16;;;;;;;1.80;1.80;;;20.60;75.20;;;;;;5081153;28;43499;-71
2022/10/31 04:16:46;;;;;;;2.20;2.10;;;20.70;75.30;;;;;;5090834;27;43947;-72
2022/10/31 04:19:15;;;;;;;1.90;1.80;;;20.60;75.20;;;;;;5067985;28;43916;-70
2022/10/31 04:21:44;;;;;;;2.93;2.70;;;20.60;75.40;;;;;;5068069;28;43552;-71
2022/10/31 04:24:12;;;;;;;6.23;3.07;;;20.50;75.50;;;;;;5072736;28;43446;-72
2022/10/31 04:26:41;;;;;;;9.00;3.80;;;20.50;75.70;;;;;;5085215;27;43517;-71
2022/10/31 04:29:09;;;;;;;9.37;3.97;;;20.60;75.50;;;;;;5067900;28;45591;-72
2022/10/31 04:31:38;;;;;;;8.93;4.10;;;20.80;75.00;;;;;;5087478;27;45444;-72
2022/10/31 04:34:07;;;;;;;7.90;4.40;;;20.90;74.40;;;;;;5086368;28;44052;-70
2022/10/31 04:36:36;;;;;;;10.63;4.70;;;21.00;74.10;;;;;;5091228;27;43589;-71
2022/10/31 04:39:04;;;;;;;9.93;4.53;;;20.90;74.10;;;;;;5086453;28;43890;-71
2022/10/31 04:41:40;;;;;;;6.27;4.03;;;20.90;74.30;;;;;;5083579;27;43437;-73
2022/10/31 04:44:13;;;;;;;8.60;5.07;;;20.80;74.50;;;;;;5056973;28;43367;-72
2022/10/31 04:46:42;;;;;;;9.40;5.00;;;20.70;74.90;;;;;;5068081;28;43435;-71
2022/10/31 04:49:10;;;;;;;9.17;5.00;;;20.70;75.00;;;;;;5088932;27;46618;-71
2022/10/31 04:51:40;;;;;;;8.83;4.60;;;20.70;75.10;;;;;;5071084;27;45051;-71
2022/10/31 04:54:09;;;;;;;7.83;4.90;;;20.60;75.10;;;;;;5067783;28;43364;-72
2022/10/31 04:57:00;;;;;;;7.67;4.73;;;20.60;75.30;;;;;;5081329;28;43890;-72
2022/10/31 04:59:29;;;;;;;8.50;5.40;;;20.50;75.50;;;;;;5067648;28;44013;-72
2022/10/31 05:02:00;;;;;;;8.40;4.63;;;20.60;75.60;;;;;;5086027;27;44608;-71
2022/10/31 05:04:42;;;;;;;5.73;4.40;;;20.60;75.70;;;;;;5072942;28;43472;-70
2022/10/31 05:07:11;;;;;;;7.73;4.90;;;20.50;75.50;;;;;;5074298;28;43553;-72
2022/10/31 05:09:39;;;;;;;7.80;4.90;;;20.50;75.60;;;;;;5071012;28;45622;-72
2022/10/31 05:12:07;;;;;;;9.30;4.93;;;20.50;76.00;;;;;;5075015;28;45045;-72
2022/10/31 05:15:10;;;;;;;9.43;5.53;;;20.50;75.90;;;;;;5049606;28;43630;-71
2022/10/31 05:18:11;;;;;;;8.17;5.20;;;20.70;75.50;;;;;;5056208;28;43934;-70
2022/10/31 05:20:57;;;;;;;6.53;4.73;;;20.80;74.80;;;;;;5087658;28;43509;-70
2022/10/31 05:23:49;;;;;;;7.03;5.20;;;20.80;74.50;;;;;;5070692;28;44654;-71
2022/10/31 05:26:18;;;;;;;7.70;4.87;;;20.90;74.60;;;;;;5071077;28;43467;-72
2022/10/31 05:28:47;;;;;;;8.70;5.30;;;20.80;74.60;;;;;;5093631;27;43538;-70
2022/10/31 05:31:16;;;;;;;6.63;4.57;;;20.90;74.60;;;;;;5070537;28;43986;-72
2022/10/31 05:33:44;;;;;;;5.93;4.97;;;20.80;74.50;;;;;;5071456;28;44555;-71
2022/10/31 05:36:30;;;;;;;6.87;5.00;;;20.80;74.80;;;;;;5081881;28;43500;-70
2022/10/31 05:39:01;;;;;;;10.17;4.97;;;20.70;75.00;;;;;;5089914;28;43341;-74
2022/10/31 05:41:35;;;;;;;8.00;5.00;;;20.60;75.20;;;;;;5070462;28;44036;-71
2022/10/31 05:44:13;;;;;;;6.40;4.73;;;20.60;75.20;;;;;;5087225;28;43374;-71
2022/10/31 05:46:57;;;;;;;5.50;4.17;;;20.60;75.20;;;;;;5067365;28;44112;-71
2022/10/31 05:49:31;;;;;;;6.60;4.57;;;20.60;75.40;;;;;;5086159;28;43339;-71
2022/10/31 05:52:19;;;;;;;6.87;4.90;;;20.60;75.70;;;;;;5088278;27;44018;-72
2022/10/31 05:54:56;;;;;;;7.13;4.77;;;20.50;75.70;;;;;;5088043;27;43387;-70
2022/10/31 05:57:24;;;;;;;8.40;5.33;;;20.60;75.40;;;;;;5067863;28;43456;-71
2022/10/31 05:59:53;;;;;;;6.77;4.80;;;20.80;74.90;;;;;;5070893;28;43548;-71
2022/10/31 06:02:23;;;;;;;6.23;5.00;;;20.90;74.30;;;;;;5069750;28;43900;-72
2022/10/31 06:05:11;;;;;;;6.00;4.60;;;21.00;74.00;;;;;;5088068;28;43706;-71
2022/10/31 06:07:39;;;;;;;6.20;4.83;;;20.90;74.00;;;;;;5070596;28;43444;-70
2022/10/31 06:10:10;;;;;;;6.70;4.50;;;20.90;74.30;;;;;;5070499;28;43445;-71
2022/10/31 06:12:40;;;;;;;5.77;4.40;;;20.80;74.50;;;;;;5069283;28;43899;-71
2022/10/31 06:15:34;;;;;;;5.37;4.53;;;20.70;75.00;;;;;;5079815;27;43518;-71
2022/10/31 06:18:03;;;;;;;4.97;4.47;;;20.70;75.00;;;;;;5071186;28;43472;-70
2022/10/31 06:20:35;;;;;;;6.10;4.27;;;20.70;75.10;;;;;;5093458;27;43604;-70
2022/10/31 06:23:04;;;;;;;4.20;3.80;;;20.60;75.10;;;;;;5086797;28;43932;-70
2022/10/31 06:25:35;;;;;;;6.60;4.80;;;20.60;75.30;;;;;;5090848;27;44971;-70
2022/10/31 06:28:05;;;;;;;5.90;4.43;;;20.50;75.60;;;;;;5075156;28;43396;-72
2022/10/31 06:30:47;;;;;;;5.10;4.60;;;20.60;75.60;;;;;;5062020;28;43602;-71
2022/10/31 06:33:16;;;;;;;4.70;4.13;;;20.50;75.40;;;;;;5087091;28;43998;-71
2022/10/31 06:35:54;;;;;;;4.97;3.87;;;20.50;75.50;;;;;;5069543;28;43471;-72
2022/10/31 06:38:23;;;;;;;4.77;4.20;;;20.50;75.60;;;;;;5092558;27;43438;-71
2022/10/31 06:40:53;;;;;;;5.23;4.20;;;20.50;76.00;;;;;;5084696;28;43447;-71
2022/10/31 06:43:23;;;;;;;4.57;4.17;;;20.60;75.80;;;;;;5067573;28;45582;-71
2022/10/31 06:46:03;;;;;;;5.10;4.17;;;20.70;75.20;;;;;;5070513;28;43426;-71
2022/10/31 06:48:35;;;;;;;5.33;4.30;;;20.90;74.60;;;;;;5087166;27;43503;-70
2022/10/31 06:51:20;;;;;;;4.47;4.07;;;21.00;74.20;;;;;;5090126;27;43503;-71
2022/10/31 06:53:50;;;;;;;4.53;3.90;;;21.00;74.00;;;;;;5069864;28;43849;-71
2022/10/31 06:56:20;;;;;;;4.77;4.00;;;20.90;74.10;;;;;;5069731;28;43436;-71
2022/10/31 06:58:52;;;;;;;4.67;4.17;;;20.90;74.40;;;;;;5073321;28;43486;-70
2022/10/31 07:01:34;;;;;;;4.70;4.23;;;20.70;74.70;;;;;;5069679;28;44151;-72
2022/10/31 07:04:03;;;;;;;5.23;4.70;;;20.70;75.00;;;;;;5092448;27;45662;-69
2022/10/31 07:06:34;;;;;;;5.57;4.70;;;20.70;75.00;;;;;;5069990;28;43402;-70
2022/10/31 07:09:02;;;;;;;3.93;3.70;;;20.60;75.00;;;;;;5087137;28;43399;-72
2022/10/31 07:11:32;;;;;;;4.97;4.20;;;20.60;75.20;;;;;;5088425;27;43577;-73
2022/10/31 07:14:01;;;;;;;4.20;3.90;;;20.50;75.50;;;;;;5070001;28;43837;-73
2022/10/31 07:16:29;;;;;;;4.50;4.10;;;20.60;75.60;;;;;;5088198;28;44042;-70
2022/10/31 07:18:57;;;;;;;4.77;3.87;;;20.60;75.60;;;;;;5069451;28;43357;-70
2022/10/31 07:21:28;;;;;;;4.10;3.80;;;20.50;75.40;;;;;;5088345;27;44018;-71
2022/10/31 07:23:56;;;;;;;4.53;4.10;;;20.50;75.60;;;;;;5069580;28;45841;-70
2022/10/31 07:26:45;;;;;;;4.70;3.93;;;20.50;75.90;;;;;;5080592;28;43439;-70
2022/10/31 07:29:14;;;;;;;4.83;4.17;;;20.50;75.80;;;;;;5068993;28;43411;-70
2022/10/31 07:31:43;;;;;;;5.13;4.20;;;20.60;75.40;;;;;;5086855;27;43498;-72
2022/10/31 07:34:18;;;;;;;4.63;4.23;;;20.80;75.00;;;;;;5089858;27;44043;-69
2022/10/31 07:37:04;;;;;;;4.50;4.10;;;20.90;74.30;;;;;;5084513;28;43482;-71
2022/10/31 07:39:33;;;;;;;5.00;4.20;;;20.90;74.00;;;;;;5092182;27;43442;-70
2022/10/31 07:42:02;;;;;;;4.83;4.40;;;20.90;74.10;;;;;;5069163;28;43564;-73
2022/10/31 07:44:31;;;;;;;3.80;3.50;;;20.90;74.40;;;;;;5078821;27;44064;-72
2022/10/31 07:47:17;;;;;;;4.00;3.70;;;20.80;74.60;;;;;;5081864;28;44000;-72
2022/10/31 07:50:04;;;;;;;5.20;4.13;;;20.70;75.10;;;;;;5086515;28;44011;-70
2022/10/31 07:52:59;;;;;;;3.93;3.60;;;20.60;75.10;;;;;;5086860;27;43851;-71
2022/10/31 07:55:47;;;;;;;3.87;3.57;;;20.60;75.10;;;;;;5068621;28;43823;-71
2022/10/31 07:58:17;;;;;;;4.40;4.00;;;20.50;75.10;;;;;;5068866;28;43862;-72
2022/10/31 08:00:46;;;;;;;4.40;4.00;;;20.50;76.20;;;;;;5068047;28;43453;-71
2022/10/31 08:03:19;;;;;;;4.47;4.10;;;20.50;75.70;;;;;;5065716;28;43982;-71
2022/10/31 08:06:06;;;;;;;4.27;3.93;;;20.50;75.60;;;;;;5083621;28;44066;-71
2022/10/31 08:09:06;;;;;;;4.20;3.90;;;20.50;75.50;;;;;;5055532;28;43541;-72
2022/10/31 08:11:34;;;;;;;4.27;3.97;;;20.50;75.70;;;;;;5068334;28;43402;-72
2022/10/31 08:14:04;;;;;;;4.23;3.83;;;20.40;75.90;;;;;;5092925;27;43562;-71
2022/10/31 08:16:32;;;;;;;3.87;3.57;;;20.50;75.90;;;;;;5085826;27;46317;-73
2022/10/31 08:19:02;;;;;;;4.10;3.77;;;20.60;75.60;;;;;;5062177;28;44550;-72
2022/10/31 08:21:36;;;;;;;3.97;3.67;;;20.70;75.00;;;;;;5065913;28;43451;-70
2022/10/31 08:24:06;;;;;;;5.07;3.90;;;20.90;74.40;;;;;;5074644;28;43562;-71
2022/10/31 08:26:34;;;;;;;3.53;3.33;;;20.90;74.20;;;;;;5068132;28;44034;-71
2022/10/31 08:29:05;;;;;;;3.90;3.60;;;20.90;74.30;;;;;;5089560;27;43355;-70
2022/10/31 08:31:36;;;;;;;3.57;3.30;;;20.80;74.40;;;;;;5085254;28;43426;-70
2022/10/31 08:34:28;;;;;;;4.30;4.00;;;20.70;74.60;;;;;;5084563;28;43327;-71
2022/10/31 08:37:18;;;;;;;4.27;4.00;;;20.60;75.10;;;;;;5077761;28;43575;-70
2022/10/31 08:39:47;;;;;;;4.47;4.07;;;20.60;75.20;;;;;;5067553;28;44083;-72
2022/10/31 08:42:15;;;;;;;3.10;2.90;;;20.60;75.30;;;;;;5084072;27;44035;-71
2022/10/31 08:44:45;;;;;;;3.67;3.37;;;20.50;75.30;;;;;;5089599;27;43434;-70
2022/10/31 08:47:13;;;;;;;3.60;3.40;;;20.50;75.60;;;;;;5068084;28;43912;-71
2022/10/31 08:49:41;;;;;;;3.63;3.43;;;20.50;75.80;;;;;;5067343;28;44795;-71
2022/10/31 08:52:10;;;;;;;4.00;3.70;;;20.50;75.60;;;;;;5063411;28;43432;-71
2022/10/31 08:54:42;;;;;;;3.50;3.27;;;20.60;75.00;;;;;;5068169;28;43561;-71
2022/10/31 08:57:28;;;;;;;4.07;3.63;;;20.80;74.80;;;;;;5084323;28;43798;-72
2022/10/31 08:59:59;;;;;;;3.67;3.43;;;20.70;74.60;;;;;;5083051;28;43813;-71
2022/10/31 09:02:33;;;;;;;3.80;3.50;;;20.70;74.90;;;;;;5085463;28;43389;-71
2022/10/31 09:05:02;;;;;;;3.57;3.37;;;20.70;74.80;;;;;;5070528;28;43558;-72
2022/10/31 09:07:30;;;;;;;3.50;3.30;;;20.70;74.80;;;;;;5068080;28;45705;-71
2022/10/31 09:09:59;;;;;;;3.60;3.40;;;20.60;74.90;;;;;;5061738;28;43758;-70
2022/10/31 09:12:31;;;;;;;4.20;3.87;;;20.60;75.00;;;;;;5084540;27;43474;-70
2022/10/31 09:15:33;;;;;;;3.43;3.23;;;20.50;75.40;;;;;;5040292;28;43492;-72
2022/10/31 09:18:19;;;;;;;3.17;2.97;;;20.50;75.40;;;;;;5078974;28;43853;-70
2022/10/31 09:20:55;;;;;;;3.23;3.13;;;20.50;75.40;;;;;;5067513;28;44461;-70
2022/10/31 09:23:23;;;;;;;3.13;2.93;;;20.50;75.50;;;;;;5086011;28;43450;-70
2022/10/31 09:25:52;;;;;;;3.20;3.00;;;20.40;75.50;;;;;;5067951;28;43866;-71
2022/10/31 09:28:36;;;;;;;3.40;3.20;;;20.40;75.90;;;;;;5085632;27;43910;-71
2022/10/31 09:31:14;;;;;;;3.50;3.30;;;20.50;75.80;;;;;;5067142;28;44820;-70
2022/10/31 09:33:56;;;;;;;3.73;3.53;;;20.60;75.40;;;;;;5083151;27;43439;-71
2022/10/31 09:36:50;;;;;;;3.47;3.27;;;20.80;74.80;;;;;;5038735;28;43517;-71
2022/10/31 09:39:20;;;;;;;3.70;3.50;;;20.80;74.40;;;;;;5082764;27;44001;-69
2022/10/31 09:42:02;;;;;;;3.57;3.37;;;20.80;74.30;;;;;;5066801;28;43972;-70
2022/10/31 09:44:35;;;;;;;3.37;3.10;;;20.80;74.60;;;;;;5060941;28;43439;-73
2022/10/31 09:47:09;;;;;;;3.63;3.43;;;20.70;74.80;;;;;;5066730;28;43505;-72
2022/10/31 09:49:51;;;;;;;3.93;3.63;;;20.60;75.20;;;;;;5068899;28;43860;-71
2022/10/31 09:52:21;;;;;;;3.20;3.10;;;20.60;75.30;;;;;;5085403;27;44473;-71
2022/10/31 09:54:51;;;;;;;3.30;3.10;;;20.50;75.30;;;;;;5093838;27;43370;-72
2022/10/31 09:57:20;;;;;;;2.93;2.83;;;20.50;75.40;;;;;;5071027;28;43601;-71
2022/10/31 09:59:48;;;;;;;3.40;3.30;;;20.50;75.50;;;;;;5070578;28;44006;-70
2022/10/31 10:02:22;;;;;;;3.20;3.00;;;20.40;75.90;;;;;;5066725;28;44716;-69
2022/10/31 10:04:54;;;;;;;3.23;3.03;;;20.40;75.90;;;;;;5071718;28;43437;-71
2022/10/31 10:07:28;;;;;;;3.33;3.13;;;20.50;75.50;;;;;;5070894;28;43989;-70
2022/10/31 10:10:18;;;;;;;3.23;3.07;;;20.60;75.10;;;;;;5085968;28;43494;-71
2022/10/31 10:13:14;;;;;;;3.27;3.10;;;20.60;75.00;;;;;;5069235;28;43470;-73
2022/10/31 10:15:52;;;;;;;3.20;3.00;;;20.60;75.20;;;;;;5070058;28;43458;-71
2022/10/31 10:18:26;;;;;;;2.93;2.83;;;20.60;75.30;;;;;;5065469;28;43543;-71
2022/10/31 10:21:01;;;;;;;2.97;2.87;;;20.60;75.30;;;;;;5088528;28;43921;-70
2022/10/31 10:23:38;;;;;;;3.40;3.20;;;20.50;75.10;;;;;;5070214;28;44725;-71
2022/10/31 10:26:13;;;;;;;3.30;3.00;;;20.50;75.40;;;;;;5088880;28;43456;-72
2022/10/31 10:28:42;;;;;;;2.93;2.83;;;20.40;75.70;;;;;;5089242;28;43399;-72
2022/10/31 10:31:13;;;;;;;3.40;3.20;;;20.40;75.70;;;;;;5070999;28;46240;-73
2022/10/31 10:33:45;;;;;;;3.33;3.20;;;20.40;75.60;;;;;;5088329;28;44015;-72
2022/10/31 10:36:15;;;;;;;2.70;2.60;;;20.40;75.60;;;;;;5076501;28;43382;-70
2022/10/31 10:38:49;;;;;;;3.00;2.90;;;20.40;75.80;;;;;;5070374;28;43571;-70
2022/10/31 10:41:20;;;;;;;3.10;3.00;;;20.40;76.10;;;;;;5081701;28;44079;-71
2022/10/31 10:43:49;;;;;;;3.07;2.90;;;20.40;76.20;;;;;;5088276;28;43398;-73
2022/10/31 10:49:19;;;;;;;2.70;2.60;;;20.60;75.30;;;;;;5070178;28;43504;-70
2022/10/31 10:51:48;;;;;;;3.07;2.97;;;20.60;75.00;;;;;;5087775;28;43845;-71
2022/10/31 10:54:57;;;;;;;2.97;2.83;;;20.60;75.00;;;;;;5065113;28;44794;-71
2022/10/31 10:57:33;;;;;;;2.83;2.73;;;20.60;75.40;;;;;;5069880;28;43419;-70
2022/10/31 11:00:17;;;;;;;2.90;2.80;;;20.60;75.30;;;;;;5088477;28;43479;-71
2022/10/31 11:02:46;;;;;;;3.00;2.80;;;20.60;75.30;;;;;;5082432;28;43873;-71
2022/10/31 11:05:23;;;;;;;3.10;3.00;;;20.50;75.30;;;;;;5067853;28;44416;-70
2022/10/31 11:07:51;;;;;;;2.70;2.60;;;20.40;75.40;;;;;;5088256;28;43390;-71
2022/10/31 11:10:19;;;;;;;3.00;2.80;;;20.40;75.80;;;;;;5088155;28;43375;-73
2022/10/31 11:12:59;;;;;;;2.90;2.80;;;20.40;75.70;;;;;;5087913;28;44064;-71
2022/10/31 11:15:28;;;;;;;2.80;2.70;;;20.40;75.60;;;;;;5069146;28;43326;-70
2022/10/31 11:17:56;;;;;;;2.60;2.50;;;20.40;75.80;;;;;;5088112;28;43415;-71
2022/10/31 11:20:31;;;;;;;3.00;2.90;;;20.30;75.80;;;;;;5088306;28;43449;-70
2022/10/31 11:23:03;;;;;;;2.77;2.57;;;20.30;76.20;;;;;;5087439;28;43615;-72
2022/10/31 11:25:31;;;;;;;3.07;2.93;;;20.40;76.10;;;;;;5087522;28;43392;-70
2022/10/31 11:28:00;;;;;;;2.60;2.50;;;20.50;75.70;;;;;;5087992;28;43429;-72
2022/10/31 11:30:28;;;;;;;2.70;2.60;;;20.60;75.10;;;;;;5088130;28;43957;-70
2022/10/31 11:32:56;;;;;;;2.63;2.53;;;20.70;74.80;;;;;;5088269;28;43968;-72
2022/10/31 11:35:25;;;;;;;2.50;2.40;;;20.70;74.60;;;;;;5087474;28;43497;-72
2022/10/31 11:37:55;;;;;;;2.70;2.60;;;20.70;74.70;;;;;;5087747;28;43909;-69
2022/10/31 11:40:25;;;;;;;2.63;2.53;;;20.60;74.90;;;;;;5087545;28;43748;-70
2022/10/31 11:42:53;;;;;;;2.63;2.53;;;20.50;75.10;;;;;;5087356;28;43591;-72
2022/10/31 11:45:29;;;;;;;2.67;2.57;;;20.50;75.60;;;;;;5070451;28;44991;-72
2022/10/31 11:47:57;;;;;;;2.47;2.37;;;20.50;75.60;;;;;;5087647;28;43951;-72
2022/10/31 11:50:32;;;;;;;2.63;2.53;;;20.40;75.50;;;;;;5087916;28;43363;-71
2022/10/31 11:53:01;;;;;;;2.30;2.30;;;20.40;75.70;;;;;;5087157;28;43836;-70
2022/10/31 11:55:33;;;;;;;2.73;2.53;;;20.30;75.80;;;;;;5087430;28;43383;-71
2022/10/31 11:58:01;;;;;;;2.60;2.50;;;20.30;76.10;;;;;;5087401;28;43445;-70
2022/10/31 12:00:32;;;;;;;2.53;2.43;;;20.30;76.00;;;;;;5088015;28;43430;-71
2022/10/31 12:03:13;;;;;;;2.33;2.33;;;20.30;75.90;;;;;;5086929;28;43866;-72
2022/10/31 12:05:41;;;;;;;2.60;2.50;;;20.30;75.90;;;;;;5067958;28;44500;-71
2022/10/31 12:08:10;;;;;;;2.70;2.60;;;20.30;76.20;;;;;;5068800;28;43426;-69
2022/10/31 12:10:41;;;;;;;2.50;2.40;;;20.30;76.40;;;;;;5066684;28;43645;-70
2022/10/31 12:13:14;;;;;;;2.30;2.30;;;20.40;76.10;;;;;;5086953;28;43896;-71
2022/10/31 12:15:45;;;;;;;2.80;2.70;;;20.50;75.60;;;;;;5061423;28;44555;-71
2022/10/31 12:18:28;;;;;;;2.40;2.30;;;20.60;75.00;;;;;;5083809;28;43382;-71
2022/10/31 12:21:03;;;;;;;2.90;2.70;;;20.70;74.70;;;;;;5087706;28;43980;-69
2022/10/31 12:23:43;;;;;;;2.40;2.30;;;20.70;74.70;;;;;;5068609;28;45925;-71
2022/10/31 12:26:15;;;;;;;2.50;2.30;;;20.60;74.80;;;;;;5086713;28;43478;-70
2022/10/31 12:28:59;;;;;;;2.33;2.33;;;20.60;75.10;;;;;;5086826;28;43415;-72
2022/10/31 12:31:39;;;;;;;2.40;2.40;;;20.50;75.50;;;;;;5081754;28;43352;-70
2022/10/31 12:34:37;;;;;;;2.57;2.47;;;20.50;75.60;;;;;;5068474;28;46087;-70
2022/10/31 12:37:09;;;;;;;2.37;2.27;;;20.40;75.60;;;;;;5041643;28;43513;-71
2022/10/31 12:39:42;;;;;;;2.40;2.30;;;20.40;75.80;;;;;;5083135;28;43462;-71
2022/10/31 12:42:15;;;;;;;2.57;2.47;;;20.30;76.00;;;;;;5070177;28;43447;-70
2022/10/31 12:45:01;;;;;;;2.33;2.33;;;20.30;76.20;;;;;;5085874;28;43931;-71
2022/10/31 12:47:53;;;;;;;2.60;2.50;;;20.40;76.00;;;;;;5086618;28;43480;-70
2022/10/31 12:50:31;;;;;;;2.33;2.30;;;20.50;75.50;;;;;;5067307;27;43446;-72
2022/10/31 12:53:06;;;;;;;2.50;2.40;;;20.50;75.20;;;;;;5086849;28;43418;-72
2022/10/31 12:55:42;;;;;;;2.00;2.00;;;20.50;75.20;;;;;;5086338;28;44352;-71
2022/10/31 12:58:11;;;;;;;2.20;2.20;;;20.50;76.30;;;;;;5086120;28;43505;-70
2022/10/31 13:00:41;;;;;;;2.60;2.50;;;20.50;75.50;;;;;;5085382;28;43465;-71
2022/10/31 13:03:22;;;;;;;2.10;2.10;;;20.50;75.40;;;;;;5085849;28;43492;-71
2022/10/31 13:05:52;;;;;;;2.00;2.00;;;20.40;75.50;;;;;;5084754;28;43900;-70
2022/10/31 13:08:23;;;;;;;2.33;2.33;;;20.40;75.60;;;;;;5079912;28;44053;-71
2022/10/31 13:11:02;;;;;;;2.30;2.20;;;20.40;76.00;;;;;;5086188;28;43969;-72
2022/10/31 13:13:33;;;;;;;2.27;2.27;;;20.40;75.90;;;;;;5082500;28;43791;-71
2022/10/31 13:16:02;;;;;;;2.23;2.20;;;20.40;75.90;;;;;;5085914;28;43842;-72
2022/10/31 13:18:31;;;;;;;2.30;2.20;;;20.30;75.90;;;;;;5086254;28;43562;-71
2022/10/31 13:21:00;;;;;;;2.33;2.33;;;20.30;76.00;;;;;;5086090;28;43442;-71
2022/10/31 13:23:29;;;;;;;2.10;2.10;;;20.30;76.40;;;;;;5086664;27;43517;-72